sensor_id;sensor_type;location;lat;lon;timestamp;P1;durP1;ratioP1;P2;durP2;ratioP2
55455;SDS011;63021;52.836;6.376;2023-04-20T00:02:14;6.80;;;3.63;;
55455;SDS011;63021;52.836;6.376;2023-04-20T00:04:45;8.60;;;3.80;;
55455;SDS011;63021;52.836;6.376;2023-04-20T00:07:11;4.82;;;3.90;;
55455;SDS011;63021;52.836;6.376;2023-04-20T00:09:37;5.45;;;3.72;;
55455;SDS011;63021;52.836;6.376;2023-04-20T00:12:03;4.60;;;3.90;;
55455;SDS011;63021;52.836;6.376;2023-04-20T00:14:29;5.75;;;3.90;;
55455;SDS011;63021;52.836;6.376;2023-04-20T00:16:54;4.88;;;4.38;;
55455;SDS011;63021;52.836;6.376;2023-04-20T00:19:22;6.28;;;4.40;;
55455;SDS011;63021;52.836;6.376;2023-04-20T00:21:52;5.00;;;3.60;;
55455;SDS011;63021;52.836;6.376;2023-04-20T00:24:18;11.27;;;4.22;;
55455;SDS011;63021;52.836;6.376;2023-04-20T00:26:43;5.95;;;3.88;;
55455;SDS011;63021;52.836;6.376;2023-04-20T00:29:09;7.03;;;3.90;;
55455;SDS011;63021;52.836;6.376;2023-04-20T00:31:34;6.97;;;3.83;;
55455;SDS011;63021;52.836;6.376;2023-04-20T00:34:00;4.70;;;3.50;;
55455;SDS011;63021;52.836;6.376;2023-04-20T00:36:25;6.43;;;3.45;;
55455;SDS011;63021;52.836;6.376;2023-04-20T00:38:54;4.95;;;3.70;;
55455;SDS011;63021;52.836;6.376;2023-04-20T00:41:20;4.57;;;3.40;;
55455;SDS011;63021;52.836;6.376;2023-04-20T00:43:49;4.70;;;3.42;;
55455;SDS011;63021;52.836;6.376;2023-04-20T00:46:16;10.52;;;3.70;;
55455;SDS011;63021;52.836;6.376;2023-04-20T00:48:42;7.50;;;3.67;;
55455;SDS011;63021;52.836;6.376;2023-04-20T00:51:08;11.10;;;3.50;;
55455;SDS011;63021;52.836;6.376;2023-04-20T00:53:34;5.70;;;3.80;;
55455;SDS011;63021;52.836;6.376;2023-04-20T00:56:00;4.65;;;4.05;;
55455;SDS011;63021;52.836;6.376;2023-04-20T00:58:26;6.18;;;3.47;;
55455;SDS011;63021;52.836;6.376;2023-04-20T01:00:55;2.95;;;2.75;;
55455;SDS011;63021;52.836;6.376;2023-04-20T01:03:21;5.00;;;3.03;;
55455;SDS011;63021;52.836;6.376;2023-04-20T01:05:46;7.53;;;3.25;;
55455;SDS011;63021;52.836;6.376;2023-04-20T01:08:12;3.85;;;3.00;;
55455;SDS011;63021;52.836;6.376;2023-04-20T01:10:38;6.53;;;3.38;;
55455;SDS011;63021;52.836;6.376;2023-04-20T01:13:03;3.17;;;2.85;;
55455;SDS011;63021;52.836;6.376;2023-04-20T01:15:29;4.63;;;2.90;;
55455;SDS011;63021;52.836;6.376;2023-04-20T01:17:55;4.88;;;3.55;;
55455;SDS011;63021;52.836;6.376;2023-04-20T01:20:22;5.50;;;3.55;;
55455;SDS011;63021;52.836;6.376;2023-04-20T01:22:50;5.10;;;2.80;;
55455;SDS011;63021;52.836;6.376;2023-04-20T01:25:17;6.20;;;2.58;;
55455;SDS011;63021;52.836;6.376;2023-04-20T01:27:47;2.85;;;2.55;;
55455;SDS011;63021;52.836;6.376;2023-04-20T01:30:13;7.07;;;2.67;;
55455;SDS011;63021;52.836;6.376;2023-04-20T01:32:38;4.80;;;2.58;;
55455;SDS011;63021;52.836;6.376;2023-04-20T01:35:05;3.28;;;2.97;;
55455;SDS011;63021;52.836;6.376;2023-04-20T01:37:33;3.28;;;2.97;;
55455;SDS011;63021;52.836;6.376;2023-04-20T01:39:59;6.90;;;2.80;;
55455;SDS011;63021;52.836;6.376;2023-04-20T01:42:24;3.13;;;2.80;;
55455;SDS011;63021;52.836;6.376;2023-04-20T01:44:50;4.68;;;2.47;;
55455;SDS011;63021;52.836;6.376;2023-04-20T01:47:18;4.13;;;3.05;;
55455;SDS011;63021;52.836;6.376;2023-04-20T01:49:44;6.60;;;2.97;;
55455;SDS011;63021;52.836;6.376;2023-04-20T01:52:09;6.28;;;2.70;;
55455;SDS011;63021;52.836;6.376;2023-04-20T01:54:35;9.63;;;3.05;;
55455;SDS011;63021;52.836;6.376;2023-04-20T01:57:01;3.25;;;2.65;;
55455;SDS011;63021;52.836;6.376;2023-04-20T01:59:27;3.58;;;2.55;;
55455;SDS011;63021;52.836;6.376;2023-04-20T02:01:52;5.38;;;2.40;;
55455;SDS011;63021;52.836;6.376;2023-04-20T02:04:21;3.03;;;2.10;;
55455;SDS011;63021;52.836;6.376;2023-04-20T02:06:49;3.35;;;2.72;;
55455;SDS011;63021;52.836;6.376;2023-04-20T02:09:17;6.03;;;2.60;;
55455;SDS011;63021;52.836;6.376;2023-04-20T02:11:50;7.00;;;3.10;;
55455;SDS011;63021;52.836;6.376;2023-04-20T02:14:19;3.08;;;2.60;;
55455;SDS011;63021;52.836;6.376;2023-04-20T02:16:44;4.20;;;3.15;;
55455;SDS011;63021;52.836;6.376;2023-04-20T02:19:10;6.90;;;2.50;;
55455;SDS011;63021;52.836;6.376;2023-04-20T02:21:36;4.00;;;3.05;;
55455;SDS011;63021;52.836;6.376;2023-04-20T02:24:05;3.92;;;2.60;;
55455;SDS011;63021;52.836;6.376;2023-04-20T02:26:30;3.10;;;2.55;;
55455;SDS011;63021;52.836;6.376;2023-04-20T02:28:56;5.88;;;2.63;;
55455;SDS011;63021;52.836;6.376;2023-04-20T02:31:21;4.47;;;2.53;;
55455;SDS011;63021;52.836;6.376;2023-04-20T02:33:50;5.75;;;2.88;;
55455;SDS011;63021;52.836;6.376;2023-04-20T02:36:16;14.32;;;2.70;;
55455;SDS011;63021;52.836;6.376;2023-04-20T02:38:41;5.47;;;2.40;;
55455;SDS011;63021;52.836;6.376;2023-04-20T02:41:07;3.35;;;2.60;;
55455;SDS011;63021;52.836;6.376;2023-04-20T02:43:41;3.05;;;2.25;;
55455;SDS011;63021;52.836;6.376;2023-04-20T02:46:07;4.75;;;2.17;;
55455;SDS011;63021;52.836;6.376;2023-04-20T02:48:32;2.45;;;2.20;;
55455;SDS011;63021;52.836;6.376;2023-04-20T02:50:58;4.03;;;2.42;;
55455;SDS011;63021;52.836;6.376;2023-04-20T02:53:23;3.80;;;2.20;;
55455;SDS011;63021;52.836;6.376;2023-04-20T02:55:49;4.07;;;2.42;;
55455;SDS011;63021;52.836;6.376;2023-04-20T02:58:14;5.80;;;2.95;;
55455;SDS011;63021;52.836;6.376;2023-04-20T03:00:41;6.90;;;2.53;;
55455;SDS011;63021;52.836;6.376;2023-04-20T03:03:08;5.32;;;2.97;;
55455;SDS011;63021;52.836;6.376;2023-04-20T03:05:34;5.03;;;2.35;;
55455;SDS011;63021;52.836;6.376;2023-04-20T03:08:00;6.90;;;2.63;;
55455;SDS011;63021;52.836;6.376;2023-04-20T03:10:29;6.07;;;2.47;;
55455;SDS011;63021;52.836;6.376;2023-04-20T03:12:56;4.15;;;2.38;;
55455;SDS011;63021;52.836;6.376;2023-04-20T03:15:23;6.30;;;3.92;;
55455;SDS011;63021;52.836;6.376;2023-04-20T03:17:49;2.83;;;2.20;;
55455;SDS011;63021;52.836;6.376;2023-04-20T03:20:16;3.25;;;2.22;;
55455;SDS011;63021;52.836;6.376;2023-04-20T03:22:47;10.00;;;2.78;;
55455;SDS011;63021;52.836;6.376;2023-04-20T03:25:12;5.22;;;2.35;;
55455;SDS011;63021;52.836;6.376;2023-04-20T03:27:41;7.03;;;2.90;;
55455;SDS011;63021;52.836;6.376;2023-04-20T03:30:10;5.20;;;2.25;;
55455;SDS011;63021;52.836;6.376;2023-04-20T03:32:35;3.15;;;2.38;;
55455;SDS011;63021;52.836;6.376;2023-04-20T03:35:02;2.10;;;1.85;;
55455;SDS011;63021;52.836;6.376;2023-04-20T03:37:30;3.75;;;2.22;;
55455;SDS011;63021;52.836;6.376;2023-04-20T03:39:55;3.08;;;2.17;;
55455;SDS011;63021;52.836;6.376;2023-04-20T03:42:20;6.60;;;2.00;;
55455;SDS011;63021;52.836;6.376;2023-04-20T03:44:46;4.38;;;1.88;;
55455;SDS011;63021;52.836;6.376;2023-04-20T03:47:11;8.63;;;2.70;;
55455;SDS011;63021;52.836;6.376;2023-04-20T03:49:37;5.07;;;2.80;;
55455;SDS011;63021;52.836;6.376;2023-04-20T03:52:03;5.32;;;2.85;;
55455;SDS011;63021;52.836;6.376;2023-04-20T03:54:29;3.47;;;2.42;;
55455;SDS011;63021;52.836;6.376;2023-04-20T03:56:54;4.85;;;2.25;;
55455;SDS011;63021;52.836;6.376;2023-04-20T03:59:20;3.80;;;2.00;;
55455;SDS011;63021;52.836;6.376;2023-04-20T04:01:45;3.03;;;2.00;;
55455;SDS011;63021;52.836;6.376;2023-04-20T04:04:11;5.65;;;2.60;;
55455;SDS011;63021;52.836;6.376;2023-04-20T04:06:36;6.07;;;2.05;;
55455;SDS011;63021;52.836;6.376;2023-04-20T04:09:02;5.18;;;2.40;;
55455;SDS011;63021;52.836;6.376;2023-04-20T04:11:27;3.38;;;2.67;;
55455;SDS011;63021;52.836;6.376;2023-04-20T04:13:54;6.50;;;2.45;;
55455;SDS011;63021;52.836;6.376;2023-04-20T04:16:21;2.85;;;2.20;;
55455;SDS011;63021;52.836;6.376;2023-04-20T04:18:49;4.82;;;2.47;;
55455;SDS011;63021;52.836;6.376;2023-04-20T04:21:15;5.43;;;2.00;;
55455;SDS011;63021;52.836;6.376;2023-04-20T04:23:40;2.42;;;2.22;;
55455;SDS011;63021;52.836;6.376;2023-04-20T04:26:06;7.97;;;2.60;;
55455;SDS011;63021;52.836;6.376;2023-04-20T04:28:32;5.18;;;2.45;;
55455;SDS011;63021;52.836;6.376;2023-04-20T04:30:58;7.35;;;2.50;;
55455;SDS011;63021;52.836;6.376;2023-04-20T04:33:30;6.28;;;2.47;;
55455;SDS011;63021;52.836;6.376;2023-04-20T04:35:58;2.85;;;2.58;;
55455;SDS011;63021;52.836;6.376;2023-04-20T04:38:24;5.00;;;2.15;;
55455;SDS011;63021;52.836;6.376;2023-04-20T04:40:52;7.05;;;2.50;;
55455;SDS011;63021;52.836;6.376;2023-04-20T04:43:18;7.63;;;2.50;;
55455;SDS011;63021;52.836;6.376;2023-04-20T04:45:44;3.15;;;2.40;;
55455;SDS011;63021;52.836;6.376;2023-04-20T04:48:19;3.25;;;2.80;;
55455;SDS011;63021;52.836;6.376;2023-04-20T04:50:47;7.28;;;2.70;;
55455;SDS011;63021;52.836;6.376;2023-04-20T04:53:19;4.78;;;3.13;;
55455;SDS011;63021;52.836;6.376;2023-04-20T04:55:51;7.60;;;2.63;;
55455;SDS011;63021;52.836;6.376;2023-04-20T04:58:25;7.10;;;2.38;;
55455;SDS011;63021;52.836;6.376;2023-04-20T05:00:51;8.38;;;2.90;;
55455;SDS011;63021;52.836;6.376;2023-04-20T05:03:18;2.83;;;1.88;;
55455;SDS011;63021;52.836;6.376;2023-04-20T05:05:44;3.17;;;2.35;;
55455;SDS011;63021;52.836;6.376;2023-04-20T05:08:10;4.72;;;2.65;;
55455;SDS011;63021;52.836;6.376;2023-04-20T05:10:40;5.03;;;2.70;;
55455;SDS011;63021;52.836;6.376;2023-04-20T05:13:05;4.18;;;3.25;;
55455;SDS011;63021;52.836;6.376;2023-04-20T05:15:32;3.42;;;2.42;;
55455;SDS011;63021;52.836;6.376;2023-04-20T05:18:01;3.70;;;2.30;;
55455;SDS011;63021;52.836;6.376;2023-04-20T05:20:29;3.50;;;2.30;;
55455;SDS011;63021;52.836;6.376;2023-04-20T05:22:54;8.90;;;2.85;;
55455;SDS011;63021;52.836;6.376;2023-04-20T05:25:20;3.08;;;2.30;;
55455;SDS011;63021;52.836;6.376;2023-04-20T05:27:48;5.85;;;2.53;;
55455;SDS011;63021;52.836;6.376;2023-04-20T05:30:17;4.70;;;2.17;;
55455;SDS011;63021;52.836;6.376;2023-04-20T05:32:46;4.30;;;2.45;;
55455;SDS011;63021;52.836;6.376;2023-04-20T05:35:11;6.60;;;2.50;;
55455;SDS011;63021;52.836;6.376;2023-04-20T05:37:43;4.28;;;2.72;;
55455;SDS011;63021;52.836;6.376;2023-04-20T05:40:09;3.25;;;2.38;;
55455;SDS011;63021;52.836;6.376;2023-04-20T05:42:35;3.58;;;2.17;;
55455;SDS011;63021;52.836;6.376;2023-04-20T05:45:11;4.00;;;2.47;;
55455;SDS011;63021;52.836;6.376;2023-04-20T05:47:37;5.88;;;2.30;;
55455;SDS011;63021;52.836;6.376;2023-04-20T05:50:03;6.40;;;2.45;;
55455;SDS011;63021;52.836;6.376;2023-04-20T05:52:56;10.38;;;3.75;;
55455;SDS011;63021;52.836;6.376;2023-04-20T05:55:25;6.22;;;2.53;;
55455;SDS011;63021;52.836;6.376;2023-04-20T05:57:56;7.13;;;2.80;;
55455;SDS011;63021;52.836;6.376;2023-04-20T06:00:21;3.03;;;2.72;;
55455;SDS011;63021;52.836;6.376;2023-04-20T06:02:51;5.85;;;2.70;;
55455;SDS011;63021;52.836;6.376;2023-04-20T06:07:50;5.93;;;2.95;;
55455;SDS011;63021;52.836;6.376;2023-04-20T06:10:17;6.65;;;2.63;;
55455;SDS011;63021;52.836;6.376;2023-04-20T06:12:43;4.13;;;2.50;;
55455;SDS011;63021;52.836;6.376;2023-04-20T06:15:10;3.95;;;2.33;;
55455;SDS011;63021;52.836;6.376;2023-04-20T06:17:44;4.70;;;2.40;;
55455;SDS011;63021;52.836;6.376;2023-04-20T06:20:18;8.63;;;2.83;;
55455;SDS011;63021;52.836;6.376;2023-04-20T06:22:57;5.47;;;2.92;;
55455;SDS011;63021;52.836;6.376;2023-04-20T06:25:23;7.38;;;3.00;;
55455;SDS011;63021;52.836;6.376;2023-04-20T06:27:51;3.80;;;2.50;;
55455;SDS011;63021;52.836;6.376;2023-04-20T06:30:17;3.50;;;2.53;;
55455;SDS011;63021;52.836;6.376;2023-04-20T06:33:02;5.95;;;3.00;;
55455;SDS011;63021;52.836;6.376;2023-04-20T06:35:28;4.78;;;3.10;;
55455;SDS011;63021;52.836;6.376;2023-04-20T06:38:10;5.65;;;2.78;;
55455;SDS011;63021;52.836;6.376;2023-04-20T06:40:35;5.32;;;3.65;;
55455;SDS011;63021;52.836;6.376;2023-04-20T06:43:01;3.75;;;3.25;;
55455;SDS011;63021;52.836;6.376;2023-04-20T06:45:27;5.82;;;2.67;;
55455;SDS011;63021;52.836;6.376;2023-04-20T06:47:55;9.00;;;3.33;;
55455;SDS011;63021;52.836;6.376;2023-04-20T06:50:21;6.57;;;2.70;;
55455;SDS011;63021;52.836;6.376;2023-04-20T06:52:46;6.88;;;3.08;;
55455;SDS011;63021;52.836;6.376;2023-04-20T06:55:15;3.95;;;2.55;;
55455;SDS011;63021;52.836;6.376;2023-04-20T06:57:41;3.80;;;3.10;;
55455;SDS011;63021;52.836;6.376;2023-04-20T07:00:15;4.47;;;2.58;;
55455;SDS011;63021;52.836;6.376;2023-04-20T07:02:45;5.70;;;3.13;;
55455;SDS011;63021;52.836;6.376;2023-04-20T07:05:12;4.18;;;2.90;;
55455;SDS011;63021;52.836;6.376;2023-04-20T07:07:39;5.55;;;3.22;;
55455;SDS011;63021;52.836;6.376;2023-04-20T07:10:07;6.70;;;3.38;;
55455;SDS011;63021;52.836;6.376;2023-04-20T07:12:34;5.53;;;3.33;;
55455;SDS011;63021;52.836;6.376;2023-04-20T07:15:03;6.25;;;3.10;;
55455;SDS011;63021;52.836;6.376;2023-04-20T07:17:30;3.95;;;3.03;;
55455;SDS011;63021;52.836;6.376;2023-04-20T07:19:56;4.85;;;3.00;;
55455;SDS011;63021;52.836;6.376;2023-04-20T07:22:23;4.75;;;3.65;;
55455;SDS011;63021;52.836;6.376;2023-04-20T07:24:49;10.40;;;3.15;;
55455;SDS011;63021;52.836;6.376;2023-04-20T07:27:18;6.25;;;3.35;;
55455;SDS011;63021;52.836;6.376;2023-04-20T07:29:43;7.32;;;3.50;;
55455;SDS011;63021;52.836;6.376;2023-04-20T07:32:09;3.88;;;3.00;;
55455;SDS011;63021;52.836;6.376;2023-04-20T07:34:40;5.85;;;3.42;;
55455;SDS011;63021;52.836;6.376;2023-04-20T07:37:13;6.90;;;3.55;;
55455;SDS011;63021;52.836;6.376;2023-04-20T07:39:39;7.70;;;3.40;;
55455;SDS011;63021;52.836;6.376;2023-04-20T07:42:05;7.95;;;3.63;;
55455;SDS011;63021;52.836;6.376;2023-04-20T07:44:30;5.65;;;4.15;;
55455;SDS011;63021;52.836;6.376;2023-04-20T07:46:58;6.15;;;3.70;;
55455;SDS011;63021;52.836;6.376;2023-04-20T07:49:24;5.20;;;3.65;;
55455;SDS011;63021;52.836;6.376;2023-04-20T07:51:51;7.38;;;3.67;;
55455;SDS011;63021;52.836;6.376;2023-04-20T07:54:22;6.82;;;3.60;;
55455;SDS011;63021;52.836;6.376;2023-04-20T07:56:53;5.53;;;4.63;;
55455;SDS011;63021;52.836;6.376;2023-04-20T07:59:20;7.35;;;3.58;;
55455;SDS011;63021;52.836;6.376;2023-04-20T08:01:46;5.70;;;4.10;;
55455;SDS011;63021;52.836;6.376;2023-04-20T08:04:11;4.43;;;3.15;;
55455;SDS011;63021;52.836;6.376;2023-04-20T08:06:36;12.57;;;4.53;;
55455;SDS011;63021;52.836;6.376;2023-04-20T08:09:03;5.60;;;3.75;;
55455;SDS011;63021;52.836;6.376;2023-04-20T08:11:29;5.63;;;4.70;;
55455;SDS011;63021;52.836;6.376;2023-04-20T08:13:58;5.55;;;4.00;;
55455;SDS011;63021;52.836;6.376;2023-04-20T08:16:23;5.78;;;3.70;;
55455;SDS011;63021;52.836;6.376;2023-04-20T08:18:49;10.18;;;3.90;;
55455;SDS011;63021;52.836;6.376;2023-04-20T08:21:15;9.23;;;4.07;;
55455;SDS011;63021;52.836;6.376;2023-04-20T08:23:40;8.27;;;4.10;;
55455;SDS011;63021;52.836;6.376;2023-04-20T08:26:06;7.47;;;5.30;;
55455;SDS011;63021;52.836;6.376;2023-04-20T08:28:37;7.22;;;3.70;;
55455;SDS011;63021;52.836;6.376;2023-04-20T08:31:02;6.07;;;3.72;;
55455;SDS011;63021;52.836;6.376;2023-04-20T08:33:28;7.30;;;3.88;;
55455;SDS011;63021;52.836;6.376;2023-04-20T08:35:54;4.15;;;3.65;;
55455;SDS011;63021;52.836;6.376;2023-04-20T08:38:21;10.45;;;3.92;;
55455;SDS011;63021;52.836;6.376;2023-04-20T08:40:51;7.55;;;3.88;;
55455;SDS011;63021;52.836;6.376;2023-04-20T08:43:17;9.88;;;4.53;;
55455;SDS011;63021;52.836;6.376;2023-04-20T08:45:45;7.30;;;4.35;;
55455;SDS011;63021;52.836;6.376;2023-04-20T08:48:14;8.88;;;4.68;;
55455;SDS011;63021;52.836;6.376;2023-04-20T08:50:41;8.63;;;4.63;;
55455;SDS011;63021;52.836;6.376;2023-04-20T08:53:07;4.53;;;3.33;;
55455;SDS011;63021;52.836;6.376;2023-04-20T08:55:33;7.63;;;4.32;;
55455;SDS011;63021;52.836;6.376;2023-04-20T08:57:59;6.72;;;4.38;;
55455;SDS011;63021;52.836;6.376;2023-04-20T09:00:24;7.75;;;5.32;;
55455;SDS011;63021;52.836;6.376;2023-04-20T09:02:50;7.63;;;4.13;;
55455;SDS011;63021;52.836;6.376;2023-04-20T09:05:24;7.50;;;4.80;;
55455;SDS011;63021;52.836;6.376;2023-04-20T09:07:54;5.18;;;4.05;;
55455;SDS011;63021;52.836;6.376;2023-04-20T09:10:22;7.00;;;4.60;;
55455;SDS011;63021;52.836;6.376;2023-04-20T09:12:48;7.47;;;4.50;;
55455;SDS011;63021;52.836;6.376;2023-04-20T09:15:25;13.38;;;6.10;;
55455;SDS011;63021;52.836;6.376;2023-04-20T09:17:55;7.43;;;4.82;;
55455;SDS011;63021;52.836;6.376;2023-04-20T09:20:30;8.50;;;5.57;;
55455;SDS011;63021;52.836;6.376;2023-04-20T09:23:17;13.93;;;5.53;;
55455;SDS011;63021;52.836;6.376;2023-04-20T09:25:49;5.88;;;4.15;;
55455;SDS011;63021;52.836;6.376;2023-04-20T09:28:17;8.48;;;4.50;;
55455;SDS011;63021;52.836;6.376;2023-04-20T09:30:43;6.57;;;4.55;;
55455;SDS011;63021;52.836;6.376;2023-04-20T09:33:11;9.27;;;5.60;;
55455;SDS011;63021;52.836;6.376;2023-04-20T09:35:38;10.52;;;4.40;;
55455;SDS011;63021;52.836;6.376;2023-04-20T09:38:06;10.13;;;5.18;;
55455;SDS011;63021;52.836;6.376;2023-04-20T09:40:32;9.95;;;5.30;;
55455;SDS011;63021;52.836;6.376;2023-04-20T09:43:04;9.70;;;5.55;;
55455;SDS011;63021;52.836;6.376;2023-04-20T09:45:34;9.38;;;4.75;;
55455;SDS011;63021;52.836;6.376;2023-04-20T09:48:05;9.55;;;5.70;;
55455;SDS011;63021;52.836;6.376;2023-04-20T09:50:39;11.00;;;5.35;;
55455;SDS011;63021;52.836;6.376;2023-04-20T09:53:10;11.18;;;5.55;;
55455;SDS011;63021;52.836;6.376;2023-04-20T09:55:54;6.93;;;5.35;;
55455;SDS011;63021;52.836;6.376;2023-04-20T09:58:22;7.60;;;6.05;;
55455;SDS011;63021;52.836;6.376;2023-04-20T10:00:51;7.25;;;5.88;;
55455;SDS011;63021;52.836;6.376;2023-04-20T10:03:27;8.50;;;5.00;;
55455;SDS011;63021;52.836;6.376;2023-04-20T10:05:53;7.50;;;5.63;;
55455;SDS011;63021;52.836;6.376;2023-04-20T10:08:38;8.63;;;5.28;;
55455;SDS011;63021;52.836;6.376;2023-04-20T10:11:05;6.90;;;4.93;;
55455;SDS011;63021;52.836;6.376;2023-04-20T10:13:32;7.53;;;4.82;;
55455;SDS011;63021;52.836;6.376;2023-04-20T10:15:58;9.68;;;5.15;;
55455;SDS011;63021;52.836;6.376;2023-04-20T10:18:26;8.52;;;5.75;;
55455;SDS011;63021;52.836;6.376;2023-04-20T10:24:03;14.68;;;6.20;;
55455;SDS011;63021;52.836;6.376;2023-04-20T10:26:38;7.35;;;4.90;;
55455;SDS011;63021;52.836;6.376;2023-04-20T10:29:09;6.65;;;5.22;;
55455;SDS011;63021;52.836;6.376;2023-04-20T10:31:49;8.85;;;5.95;;
55455;SDS011;63021;52.836;6.376;2023-04-20T10:34:27;9.93;;;5.57;;
55455;SDS011;63021;52.836;6.376;2023-04-20T10:37:14;8.32;;;5.97;;
55455;SDS011;63021;52.836;6.376;2023-04-20T10:39:46;8.98;;;5.13;;
55455;SDS011;63021;52.836;6.376;2023-04-20T10:42:15;8.18;;;5.65;;
55455;SDS011;63021;52.836;6.376;2023-04-20T10:44:52;11.90;;;6.32;;
55455;SDS011;63021;52.836;6.376;2023-04-20T10:47:37;8.27;;;5.55;;
55455;SDS011;63021;52.836;6.376;2023-04-20T10:52:39;12.88;;;6.90;;
55455;SDS011;63021;52.836;6.376;2023-04-20T10:55:06;8.25;;;6.57;;
55455;SDS011;63021;52.836;6.376;2023-04-20T10:57:45;7.38;;;5.70;;
55455;SDS011;63021;52.836;6.376;2023-04-20T11:00:18;9.77;;;6.10;;
55455;SDS011;63021;52.836;6.376;2023-04-20T11:02:49;10.60;;;6.43;;
55455;SDS011;63021;52.836;6.376;2023-04-20T11:05:24;9.60;;;6.05;;
55455;SDS011;63021;52.836;6.376;2023-04-20T11:07:56;9.38;;;6.10;;
55455;SDS011;63021;52.836;6.376;2023-04-20T11:10:39;12.85;;;7.03;;
55455;SDS011;63021;52.836;6.376;2023-04-20T11:13:06;6.93;;;5.80;;
55455;SDS011;63021;52.836;6.376;2023-04-20T11:15:42;8.02;;;6.22;;
55455;SDS011;63021;52.836;6.376;2023-04-20T11:18:14;9.38;;;6.78;;
55455;SDS011;63021;52.836;6.376;2023-04-20T11:20:53;9.65;;;6.93;;
55455;SDS011;63021;52.836;6.376;2023-04-20T11:23:20;10.00;;;6.93;;
55455;SDS011;63021;52.836;6.376;2023-04-20T11:25:56;9.07;;;6.47;;
55455;SDS011;63021;52.836;6.376;2023-04-20T11:28:22;9.20;;;6.85;;
55455;SDS011;63021;52.836;6.376;2023-04-20T11:30:49;8.15;;;7.07;;
55455;SDS011;63021;52.836;6.376;2023-04-20T11:33:31;12.85;;;7.90;;
55455;SDS011;63021;52.836;6.376;2023-04-20T11:35:58;11.90;;;8.68;;
55455;SDS011;63021;52.836;6.376;2023-04-20T11:38:30;10.65;;;7.97;;
55455;SDS011;63021;52.836;6.376;2023-04-20T11:40:56;12.27;;;8.80;;
55455;SDS011;63021;52.836;6.376;2023-04-20T11:43:29;12.82;;;8.10;;
55455;SDS011;63021;52.836;6.376;2023-04-20T11:45:56;8.93;;;7.72;;
55455;SDS011;63021;52.836;6.376;2023-04-20T11:48:22;11.82;;;8.23;;
55455;SDS011;63021;52.836;6.376;2023-04-20T11:50:48;9.80;;;7.65;;
55455;SDS011;63021;52.836;6.376;2023-04-20T11:53:13;10.57;;;7.97;;
55455;SDS011;63021;52.836;6.376;2023-04-20T11:55:39;9.75;;;7.70;;
55455;SDS011;63021;52.836;6.376;2023-04-20T11:58:06;11.30;;;8.15;;
55455;SDS011;63021;52.836;6.376;2023-04-20T12:00:32;11.52;;;7.88;;
55455;SDS011;63021;52.836;6.376;2023-04-20T12:02:58;7.82;;;7.03;;
55455;SDS011;63021;52.836;6.376;2023-04-20T12:05:29;8.85;;;7.28;;
55455;SDS011;63021;52.836;6.376;2023-04-20T12:07:55;10.00;;;7.55;;
55455;SDS011;63021;52.836;6.376;2023-04-20T12:10:23;8.82;;;7.80;;
55455;SDS011;63021;52.836;6.376;2023-04-20T12:12:48;11.40;;;7.82;;
55455;SDS011;63021;52.836;6.376;2023-04-20T12:15:15;8.55;;;6.93;;
55455;SDS011;63021;52.836;6.376;2023-04-20T12:17:41;11.95;;;7.72;;
55455;SDS011;63021;52.836;6.376;2023-04-20T12:20:14;8.90;;;6.43;;
55455;SDS011;63021;52.836;6.376;2023-04-20T12:22:47;12.00;;;7.60;;
55455;SDS011;63021;52.836;6.376;2023-04-20T12:25:12;11.27;;;7.20;;
55455;SDS011;63021;52.836;6.376;2023-04-20T12:27:41;9.13;;;6.53;;
55455;SDS011;63021;52.836;6.376;2023-04-20T12:30:09;10.75;;;7.10;;
55455;SDS011;63021;52.836;6.376;2023-04-20T12:32:40;7.10;;;6.30;;
55455;SDS011;63021;52.836;6.376;2023-04-20T12:35:06;7.88;;;6.72;;
55455;SDS011;63021;52.836;6.376;2023-04-20T12:37:40;9.18;;;7.07;;
55455;SDS011;63021;52.836;6.376;2023-04-20T12:42:37;11.57;;;7.05;;
55455;SDS011;63021;52.836;6.376;2023-04-20T12:45:04;7.65;;;6.85;;
55455;SDS011;63021;52.836;6.376;2023-04-20T12:47:33;11.85;;;7.55;;
55455;SDS011;63021;52.836;6.376;2023-04-20T12:50:06;8.93;;;7.72;;
55455;SDS011;63021;52.836;6.376;2023-04-20T12:52:40;14.23;;;7.68;;
55455;SDS011;63021;52.836;6.376;2023-04-20T12:55:08;11.45;;;8.00;;
55455;SDS011;63021;52.836;6.376;2023-04-20T12:57:38;9.52;;;7.70;;
55455;SDS011;63021;52.836;6.376;2023-04-20T13:00:12;11.55;;;7.63;;
55455;SDS011;63021;52.836;6.376;2023-04-20T13:02:45;11.38;;;7.90;;
55455;SDS011;63021;52.836;6.376;2023-04-20T13:05:11;8.60;;;7.65;;
55455;SDS011;63021;52.836;6.376;2023-04-20T13:07:37;10.55;;;7.22;;
55455;SDS011;63021;52.836;6.376;2023-04-20T13:10:03;9.85;;;7.10;;
55455;SDS011;63021;52.836;6.376;2023-04-20T13:12:47;10.95;;;6.97;;
55455;SDS011;63021;52.836;6.376;2023-04-20T13:15:12;10.45;;;7.68;;
55455;SDS011;63021;52.836;6.376;2023-04-20T13:17:38;9.32;;;7.03;;
55455;SDS011;63021;52.836;6.376;2023-04-20T13:20:04;10.40;;;8.18;;
55455;SDS011;63021;52.836;6.376;2023-04-20T13:22:30;14.15;;;7.30;;
55455;SDS011;63021;52.836;6.376;2023-04-20T13:24:58;9.43;;;6.70;;
55455;SDS011;63021;52.836;6.376;2023-04-20T13:27:24;8.88;;;6.90;;
55455;SDS011;63021;52.836;6.376;2023-04-20T13:29:49;8.10;;;7.13;;
55455;SDS011;63021;52.836;6.376;2023-04-20T13:32:15;8.90;;;7.40;;
55455;SDS011;63021;52.836;6.376;2023-04-20T13:34:40;11.10;;;7.53;;
55455;SDS011;63021;52.836;6.376;2023-04-20T13:37:13;11.40;;;8.80;;
55455;SDS011;63021;52.836;6.376;2023-04-20T13:39:39;8.45;;;7.53;;
55455;SDS011;63021;52.836;6.376;2023-04-20T13:42:07;9.93;;;8.20;;
55455;SDS011;63021;52.836;6.376;2023-04-20T13:44:33;8.05;;;7.25;;
55455;SDS011;63021;52.836;6.376;2023-04-20T13:47:09;11.40;;;7.15;;
55455;SDS011;63021;52.836;6.376;2023-04-20T13:49:34;15.05;;;7.45;;
55455;SDS011;63021;52.836;6.376;2023-04-20T13:52:00;9.07;;;7.65;;
55455;SDS011;63021;52.836;6.376;2023-04-20T13:54:25;11.07;;;8.73;;
55455;SDS011;63021;52.836;6.376;2023-04-20T13:56:51;10.38;;;7.38;;
55455;SDS011;63021;52.836;6.376;2023-04-20T13:59:16;12.07;;;7.78;;
55455;SDS011;63021;52.836;6.376;2023-04-20T14:01:42;9.70;;;7.65;;
55455;SDS011;63021;52.836;6.376;2023-04-20T14:04:10;13.98;;;7.50;;
55455;SDS011;63021;52.836;6.376;2023-04-20T14:06:38;10.02;;;7.18;;
55455;SDS011;63021;52.836;6.376;2023-04-20T14:09:10;9.43;;;7.10;;
55455;SDS011;63021;52.836;6.376;2023-04-20T14:11:36;7.85;;;7.03;;
55455;SDS011;63021;52.836;6.376;2023-04-20T14:14:07;7.97;;;6.88;;
55455;SDS011;63021;52.836;6.376;2023-04-20T14:16:46;13.93;;;8.07;;
55455;SDS011;63021;52.836;6.376;2023-04-20T14:19:13;9.20;;;7.20;;
55455;SDS011;63021;52.836;6.376;2023-04-20T14:21:39;8.32;;;6.35;;
55455;SDS011;63021;52.836;6.376;2023-04-20T14:24:11;10.45;;;6.72;;
55455;SDS011;63021;52.836;6.376;2023-04-20T14:26:38;11.57;;;6.63;;
55455;SDS011;63021;52.836;6.376;2023-04-20T14:29:18;8.80;;;6.22;;
55455;SDS011;63021;52.836;6.376;2023-04-20T14:31:47;8.60;;;6.47;;
55455;SDS011;63021;52.836;6.376;2023-04-20T14:34:12;7.85;;;7.05;;
55455;SDS011;63021;52.836;6.376;2023-04-20T14:36:48;10.13;;;7.03;;
55455;SDS011;63021;52.836;6.376;2023-04-20T14:39:17;7.22;;;6.47;;
55455;SDS011;63021;52.836;6.376;2023-04-20T14:41:51;7.07;;;6.35;;
55455;SDS011;63021;52.836;6.376;2023-04-20T14:44:16;9.52;;;6.90;;
55455;SDS011;63021;52.836;6.376;2023-04-20T14:46:45;10.15;;;6.68;;
55455;SDS011;63021;52.836;6.376;2023-04-20T14:49:16;9.10;;;6.68;;
55455;SDS011;63021;52.836;6.376;2023-04-20T14:51:48;8.70;;;6.78;;
55455;SDS011;63021;52.836;6.376;2023-04-20T14:54:24;6.72;;;5.68;;
55455;SDS011;63021;52.836;6.376;2023-04-20T14:56:50;7.70;;;6.30;;
55455;SDS011;63021;52.836;6.376;2023-04-20T14:59:19;8.65;;;5.95;;
55455;SDS011;63021;52.836;6.376;2023-04-20T15:01:59;9.98;;;6.13;;
55455;SDS011;63021;52.836;6.376;2023-04-20T15:04:28;8.48;;;5.88;;